createdAt,value
2023-03-18T00:00:06.335Z,11.21
2023-03-18T00:01:06.340Z,11.27
2023-03-18T00:02:06.313Z,11.21
2023-03-18T00:03:06.310Z,11.22
2023-03-18T00:04:06.422Z,11.18
2023-03-18T00:05:06.317Z,11.17
2023-03-18T00:06:06.277Z,11.14
2023-03-18T00:07:06.262Z,11.21
2023-03-18T00:08:06.270Z,11.25
2023-03-18T00:09:06.260Z,11.21
2023-03-18T00:10:06.268Z,11.18
2023-03-18T00:11:06.240Z,11.18
2023-03-18T00:12:06.206Z,11.25
2023-03-18T00:13:06.217Z,11.19
2023-03-18T00:14:06.183Z,11.29
2023-03-18T00:15:06.175Z,11.19
2023-03-18T00:16:06.727Z,11.19
2023-03-18T00:17:06.166Z,11.29
2023-03-18T00:18:06.157Z,11.15
2023-03-18T00:19:06.133Z,11.27
2023-03-18T00:20:06.132Z,11.21
2023-03-18T00:21:06.126Z,11.18
2023-03-18T00:22:06.147Z,11.17
2023-03-18T00:23:06.102Z,11.17
2023-03-18T00:24:06.104Z,11.27
2023-03-18T00:25:06.063Z,11.17
2023-03-18T00:26:06.067Z,11.19
2023-03-18T00:27:06.042Z,11.11
2023-03-18T00:28:06.027Z,11.15
2023-03-18T00:29:06.052Z,11.17
2023-03-18T00:30:06.009Z,11.15
2023-03-18T00:31:06.029Z,11.09
2023-03-18T00:32:06.001Z,11.11
2023-03-18T00:33:06.023Z,11.14
2023-03-18T00:34:05.978Z,11.14
2023-03-18T00:35:05.985Z,11.04
2023-03-18T00:36:06.041Z,11.09
2023-03-18T00:37:05.940Z,11.09
2023-03-18T00:38:05.952Z,11.04
2023-03-18T00:39:05.914Z,11.14
2023-03-18T00:40:05.920Z,11.07
2023-03-18T00:41:05.913Z,11.14
2023-03-18T00:42:05.875Z,11.10
2023-03-18T00:43:05.912Z,11.11
2023-03-18T00:44:05.865Z,11.03
2023-03-18T00:45:05.850Z,10.96
2023-03-18T00:46:05.886Z,11.02
2023-03-18T00:47:05.893Z,10.96
2023-03-18T00:48:05.835Z,11.03
2023-03-18T00:49:05.800Z,10.97
2023-03-18T00:50:05.790Z,10.89
2023-03-18T00:51:05.780Z,10.86
2023-03-18T00:52:05.796Z,11.03
2023-03-18T00:53:05.767Z,10.97
2023-03-18T00:54:05.759Z,10.97
2023-03-18T00:55:05.740Z,11.00
2023-03-18T00:56:05.771Z,11.00
2023-03-18T00:57:05.740Z,11.06
2023-03-18T00:58:05.708Z,11.00
2023-03-18T00:59:05.712Z,10.94
2023-03-18T01:00:05.684Z,10.86
2023-03-18T01:01:05.766Z,10.89
2023-03-18T01:02:05.711Z,10.91
2023-03-18T01:03:05.647Z,10.91
2023-03-18T01:04:05.635Z,10.91
2023-03-18T01:05:05.645Z,10.89
2023-03-18T01:06:05.623Z,10.89
2023-03-18T01:07:05.619Z,10.86
2023-03-18T01:08:05.617Z,10.88
2023-03-18T01:09:05.654Z,10.88
2023-03-18T01:10:05.592Z,10.92
2023-03-18T01:11:05.605Z,10.89
2023-03-18T01:12:05.602Z,10.92
2023-03-18T01:13:05.563Z,10.86
2023-03-18T01:14:05.537Z,10.85
2023-03-18T01:15:05.512Z,10.85
2023-03-18T01:16:05.541Z,10.81
2023-03-18T01:17:05.524Z,10.85
2023-03-18T01:18:05.486Z,10.82
2023-03-18T01:19:05.480Z,10.81
2023-03-18T01:20:05.491Z,10.81
2023-03-18T01:21:05.451Z,10.96
2023-03-18T01:22:05.460Z,10.88
2023-03-18T01:23:05.469Z,10.97
2023-03-18T01:24:05.426Z,10.84
2023-03-18T01:25:05.414Z,10.94
2023-03-18T01:26:05.408Z,10.86
2023-03-18T01:27:05.398Z,10.92
2023-03-18T01:28:05.432Z,10.91
2023-03-18T01:29:05.372Z,10.79
2023-03-18T01:30:05.358Z,10.96
2023-03-18T01:31:05.340Z,10.79
2023-03-18T01:32:05.434Z,10.84
2023-03-18T01:33:05.411Z,10.86
2023-03-18T01:34:05.323Z,10.86
2023-03-18T01:35:05.314Z,10.85
2023-03-18T01:36:05.362Z,10.81
2023-03-18T01:37:05.284Z,10.78
2023-03-18T01:38:05.267Z,10.86
2023-03-18T01:39:05.266Z,10.94
2023-03-18T01:40:05.295Z,10.89
2023-03-18T01:41:05.285Z,10.84
2023-03-18T01:42:05.229Z,10.96
2023-03-18T01:43:05.213Z,10.88
2023-03-18T01:44:05.230Z,10.92
2023-03-18T01:45:05.206Z,10.91
2023-03-18T01:46:05.238Z,10.82
2023-03-18T01:47:05.180Z,10.86
2023-03-18T01:48:05.158Z,10.84
2023-03-18T01:49:05.178Z,10.81
2023-03-18T01:50:05.177Z,10.76
2023-03-18T01:51:05.134Z,10.76
2023-03-18T01:52:05.127Z,10.79
2023-03-18T01:53:05.100Z,10.79
2023-03-18T01:54:05.111Z,10.79
2023-03-18T01:55:05.081Z,10.78
2023-03-18T01:56:05.081Z,10.79
2023-03-18T01:57:05.066Z,10.81
2023-03-18T01:58:05.061Z,10.70
2023-03-18T01:59:05.028Z,10.74
2023-03-18T02:00:05.061Z,10.78
2023-03-18T02:01:05.076Z,10.74
2023-03-18T02:02:05.011Z,10.71
2023-03-18T02:03:05.011Z,10.76
2023-03-18T02:04:04.989Z,10.78
2023-03-18T02:05:04.980Z,10.64
2023-03-18T02:06:04.956Z,10.78
2023-03-18T02:07:04.946Z,10.73
2023-03-18T02:08:04.944Z,10.71
2023-03-18T02:09:04.942Z,10.70
2023-03-18T02:10:04.925Z,10.63
2023-03-18T02:11:04.913Z,10.68
2023-03-18T02:12:04.925Z,10.66
2023-03-18T02:13:04.883Z,10.79
2023-03-18T02:14:04.872Z,10.66
2023-03-18T02:15:04.907Z,10.70
2023-03-18T02:16:04.864Z,10.67
2023-03-18T02:17:04.833Z,10.56
2023-03-18T02:18:04.823Z,10.59
2023-03-18T02:19:04.829Z,10.59
2023-03-18T02:20:04.869Z,10.63
2023-03-18T02:21:04.829Z,10.61
2023-03-18T02:22:04.798Z,10.55
2023-03-18T02:23:04.769Z,10.63
2023-03-18T02:24:04.776Z,10.48
2023-03-18T02:25:04.752Z,10.53
2023-03-18T02:26:04.763Z,10.51
2023-03-18T02:27:04.733Z,10.60
2023-03-18T02:28:04.732Z,10.51
2023-03-18T02:29:04.704Z,10.53
2023-03-18T02:30:04.695Z,10.53
2023-03-18T02:31:04.720Z,10.61
2023-03-18T02:32:04.713Z,10.53
2023-03-18T02:33:04.715Z,10.55
2023-03-18T02:34:04.672Z,10.53
2023-03-18T02:35:04.642Z,10.52
2023-03-18T02:36:04.632Z,10.63
2023-03-18T02:37:04.650Z,10.47
2023-03-18T02:38:04.611Z,10.48
2023-03-18T02:39:04.601Z,10.45
2023-03-18T02:40:04.627Z,10.53
2023-03-18T02:41:04.581Z,10.52
2023-03-18T02:42:04.571Z,10.33
2023-03-18T02:43:04.551Z,10.40
2023-03-18T02:44:04.549Z,10.41
2023-03-18T02:45:04.556Z,10.32
2023-03-18T02:46:04.599Z,10.41
2023-03-18T02:47:04.520Z,10.38
2023-03-18T02:48:04.521Z,10.41
2023-03-18T02:49:04.494Z,10.40
2023-03-18T02:50:04.508Z,10.32
2023-03-18T02:51:04.486Z,10.32
2023-03-18T02:52:04.473Z,10.33
2023-03-18T02:53:04.464Z,10.34
2023-03-18T02:54:04.444Z,10.34
2023-03-18T02:55:04.447Z,10.33
2023-03-18T02:56:04.449Z,10.32
2023-03-18T02:57:04.443Z,10.27
2023-03-18T02:58:04.398Z,10.25
2023-03-18T02:59:04.384Z,10.22
2023-03-18T03:00:04.392Z,10.20
2023-03-18T03:01:04.387Z,10.22
2023-03-18T03:02:04.358Z,10.18
2023-03-18T03:03:04.541Z,10.17
2023-03-18T03:04:04.372Z,10.22
2023-03-18T03:05:04.330Z,10.09
2023-03-18T03:06:04.334Z,10.04
2023-03-18T03:07:04.293Z,10.05
2023-03-18T03:08:04.298Z,10.08
2023-03-18T03:09:04.307Z,10.05
2023-03-18T03:10:04.309Z,10.04
2023-03-18T03:11:04.246Z,9.99
2023-03-18T03:12:04.246Z,9.93
2023-03-18T03:13:04.229Z,10.04
2023-03-18T03:14:04.249Z,9.93
2023-03-18T03:15:04.248Z,9.87
2023-03-18T03:16:04.244Z,9.81
2023-03-18T03:17:04.184Z,9.83
2023-03-18T03:18:04.222Z,9.90
2023-03-18T03:19:04.168Z,9.78
2023-03-18T03:20:04.174Z,9.81
2023-03-18T03:21:04.182Z,9.74
2023-03-18T03:22:04.133Z,9.61
2023-03-18T03:23:04.150Z,9.71
2023-03-18T03:24:04.111Z,9.74
2023-03-18T03:25:04.116Z,9.60
2023-03-18T03:26:04.105Z,9.68
2023-03-18T03:27:04.109Z,9.76
2023-03-18T03:28:04.079Z,9.76
2023-03-18T03:29:04.068Z,9.68
2023-03-18T03:30:04.045Z,9.71
2023-03-18T03:31:04.088Z,9.69
2023-03-18T03:32:04.026Z,9.75
2023-03-18T03:33:04.136Z,9.69
2023-03-18T03:34:04.009Z,9.78
2023-03-18T03:35:03.988Z,9.75
2023-03-18T03:36:04.015Z,9.74
2023-03-18T03:37:03.982Z,9.71
2023-03-18T03:38:03.959Z,9.58
2023-03-18T03:39:03.956Z,9.58
2023-03-18T03:40:03.936Z,9.51
2023-03-18T03:41:03.926Z,9.51
2023-03-18T03:42:03.959Z,9.48
2023-03-18T03:43:03.898Z,9.50
2023-03-18T03:44:03.917Z,9.42
2023-03-18T03:45:03.893Z,9.40
2023-03-18T03:46:03.955Z,9.53
2023-03-18T03:47:03.856Z,9.51
2023-03-18T03:48:03.850Z,9.53
2023-03-18T03:49:03.851Z,9.36
2023-03-18T03:50:03.831Z,9.42
2023-03-18T03:51:03.844Z,9.32
2023-03-18T03:52:03.837Z,9.39
2023-03-18T03:53:03.803Z,9.42
2023-03-18T03:54:03.822Z,9.38
2023-03-18T03:55:03.790Z,9.39
2023-03-18T03:56:03.779Z,9.31
2023-03-18T03:57:03.801Z,9.26
2023-03-18T03:58:03.739Z,9.21
2023-03-18T03:59:03.725Z,9.28
2023-03-18T04:00:03.716Z,9.23
2023-03-18T04:01:03.699Z,9.29
2023-03-18T04:02:03.692Z,9.29
2023-03-18T04:03:03.874Z,9.10
2023-03-18T04:04:03.721Z,9.15
2023-03-18T04:05:03.661Z,9.11
2023-03-18T04:06:03.650Z,9.14
2023-03-18T04:07:03.635Z,9.11
2023-03-18T04:08:03.645Z,9.14
2023-03-18T04:09:03.651Z,9.11
2023-03-18T04:10:03.610Z,9.10
2023-03-18T04:11:03.601Z,9.11
2023-03-18T04:12:03.586Z,9.11
2023-03-18T04:13:03.611Z,9.08
2023-03-18T04:14:03.574Z,9.04
2023-03-18T04:15:03.572Z,8.99
2023-03-18T04:16:03.583Z,9.08
2023-03-18T04:17:03.554Z,9.13
2023-03-18T04:18:03.536Z,9.11
2023-03-18T04:19:03.510Z,9.05
2023-03-18T04:20:03.506Z,9.10
2023-03-18T04:21:03.491Z,9.05
2023-03-18T04:22:03.479Z,8.95
2023-03-18T04:23:03.475Z,9.02
2023-03-18T04:24:03.486Z,9.02
2023-03-18T04:25:03.442Z,9.01
2023-03-18T04:26:03.434Z,8.94
2023-03-18T04:27:03.433Z,8.92
2023-03-18T04:28:03.416Z,8.92
2023-03-18T04:29:03.400Z,8.98
2023-03-18T04:30:03.403Z,8.98
2023-03-18T04:31:03.407Z,8.96
2023-03-18T04:32:03.360Z,8.91
2023-03-18T04:33:03.641Z,8.95
2023-03-18T04:34:03.341Z,8.89
2023-03-18T04:35:03.338Z,8.84
2023-03-18T04:36:03.390Z,8.86
2023-03-18T04:37:03.309Z,8.76
2023-03-18T04:38:03.302Z,8.83
2023-03-18T04:39:03.314Z,8.74
2023-03-18T04:40:03.305Z,8.83
2023-03-18T04:41:03.264Z,8.81
2023-03-18T04:42:03.280Z,8.76
2023-03-18T04:43:03.238Z,8.87
2023-03-18T04:44:03.247Z,8.83
2023-03-18T04:45:03.227Z,8.91
2023-03-18T04:46:03.217Z,8.77
2023-03-18T04:47:03.216Z,8.81
2023-03-18T04:48:03.192Z,8.86
2023-03-18T04:49:03.197Z,8.77
2023-03-18T04:50:03.185Z,8.83
2023-03-18T04:51:03.159Z,8.84
2023-03-18T04:52:03.154Z,8.76
2023-03-18T04:53:03.131Z,8.73
2023-03-18T04:54:03.163Z,8.83
2023-03-18T04:55:03.106Z,8.83
2023-03-18T04:56:03.133Z,8.87
2023-03-18T04:57:03.112Z,8.83
2023-03-18T04:58:03.083Z,8.79
2023-03-18T04:59:03.067Z,8.83
2023-03-18T05:00:03.062Z,8.95
2023-03-18T05:01:03.139Z,8.83
2023-03-18T05:02:03.038Z,8.92
2023-03-18T05:03:03.046Z,8.95
2023-03-18T05:04:03.169Z,8.92
2023-03-18T05:05:03.027Z,8.91
2023-03-18T05:06:03.028Z,8.96
2023-03-18T05:07:03.085Z,8.89
2023-03-18T05:08:02.973Z,8.94
2023-03-18T05:09:02.981Z,8.95
2023-03-18T05:10:02.949Z,8.86
2023-03-18T05:11:02.950Z,8.87
2023-03-18T05:12:02.951Z,8.76
2023-03-18T05:13:02.916Z,8.79
2023-03-18T05:14:02.912Z,8.66
2023-03-18T05:15:02.926Z,8.79
2023-03-18T05:16:02.913Z,8.76
2023-03-18T05:17:02.889Z,8.70
2023-03-18T05:18:02.866Z,8.68
2023-03-18T05:19:02.850Z,8.68
2023-03-18T05:20:02.836Z,8.62
2023-03-18T05:21:02.852Z,8.65
2023-03-18T05:22:02.826Z,8.66
2023-03-18T05:23:02.828Z,8.53
2023-03-18T05:24:02.796Z,8.65
2023-03-18T05:25:02.783Z,8.66
2023-03-18T05:26:02.777Z,8.66
2023-03-18T05:27:02.812Z,8.63
2023-03-18T05:28:02.768Z,8.58
2023-03-18T05:29:02.741Z,8.58
2023-03-18T05:30:02.727Z,8.58
2023-03-18T05:31:02.721Z,8.58
2023-03-18T05:32:02.756Z,8.62
2023-03-18T05:33:02.770Z,8.53
2023-03-18T05:34:02.685Z,8.56
2023-03-18T05:35:02.679Z,8.73
2023-03-18T05:36:02.699Z,8.79
2023-03-18T05:37:02.669Z,8.77
2023-03-18T05:38:02.644Z,8.79
2023-03-18T05:39:02.662Z,8.76
2023-03-18T05:40:02.636Z,8.76
2023-03-18T05:41:02.610Z,8.77
2023-03-18T05:42:02.617Z,8.76
2023-03-18T05:43:02.590Z,8.68
2023-03-18T05:44:02.590Z,8.71
2023-03-18T05:45:02.599Z,8.77
2023-03-18T05:46:02.656Z,8.65
2023-03-18T05:47:02.574Z,8.63
2023-03-18T05:48:02.548Z,8.63
2023-03-18T05:49:02.531Z,8.59
2023-03-18T05:50:02.529Z,8.61
2023-03-18T05:51:02.510Z,8.58
2023-03-18T05:52:02.493Z,8.58
2023-03-18T05:53:02.487Z,8.59
2023-03-18T05:54:02.465Z,8.61
2023-03-18T05:55:02.474Z,8.62
2023-03-18T05:56:02.451Z,8.56
2023-03-18T05:57:02.479Z,8.73
2023-03-18T05:58:02.454Z,8.80
2023-03-18T05:59:02.436Z,8.74
2023-03-18T06:00:02.425Z,8.81
2023-03-18T06:01:02.404Z,8.89
2023-03-18T06:02:02.436Z,8.95
2023-03-18T06:03:02.544Z,9.05
2023-03-18T06:04:02.375Z,9.10
2023-03-18T06:05:02.358Z,9.08
2023-03-18T06:06:02.337Z,9.15
2023-03-18T06:07:02.377Z,9.18
2023-03-18T06:08:03.118Z,9.21
2023-03-18T06:09:02.323Z,9.26
2023-03-18T06:10:02.305Z,9.31
2023-03-18T06:11:02.337Z,9.42
2023-03-18T06:12:02.305Z,9.33
2023-03-18T06:13:02.284Z,9.47
2023-03-18T06:14:02.288Z,9.47
2023-03-18T06:15:02.253Z,9.57
2023-03-18T06:16:02.257Z,9.48
2023-03-18T06:17:02.320Z,9.66
2023-03-18T06:18:02.231Z,9.76
2023-03-18T06:19:02.200Z,9.69
2023-03-18T06:20:02.189Z,9.79
2023-03-18T06:21:02.198Z,9.79
2023-03-18T06:22:02.166Z,9.96
2023-03-18T06:23:02.181Z,9.91
2023-03-18T06:24:02.171Z,9.96
2023-03-18T06:25:02.130Z,10.08
2023-03-18T06:26:02.122Z,10.02
2023-03-18T06:27:02.148Z,10.11
2023-03-18T06:28:02.119Z,10.22
2023-03-18T06:29:02.121Z,10.29
2023-03-18T06:30:02.081Z,10.30
2023-03-18T06:31:02.132Z,10.30
2023-03-18T06:32:02.080Z,10.40
2023-03-18T06:33:02.149Z,10.51
2023-03-18T06:34:02.044Z,10.48
2023-03-18T06:35:02.027Z,10.55
2023-03-18T06:36:02.026Z,10.53
2023-03-18T06:37:02.018Z,10.71
2023-03-18T06:38:02.011Z,10.70
2023-03-18T06:39:01.995Z,10.78
2023-03-18T06:40:02.029Z,10.78
2023-03-18T06:41:01.958Z,10.91
2023-03-18T06:42:01.950Z,11.00
2023-03-18T06:43:01.978Z,11.00
2023-03-18T06:44:01.929Z,11.09
2023-03-18T06:45:01.934Z,11.24
2023-03-18T06:46:02.003Z,11.21
2023-03-18T06:47:01.919Z,11.32
2023-03-18T06:48:01.902Z,11.37
2023-03-18T06:49:01.888Z,11.47
2023-03-18T06:50:01.863Z,11.55
2023-03-18T06:51:01.868Z,11.60
2023-03-18T06:52:01.864Z,11.65
2023-03-18T06:53:01.858Z,11.79
2023-03-18T06:54:01.817Z,11.83
2023-03-18T06:55:01.823Z,11.88
2023-03-18T06:56:01.809Z,11.96
2023-03-18T06:57:01.805Z,11.99
2023-03-18T06:58:01.800Z,12.13
2023-03-18T06:59:01.782Z,12.24
2023-03-18T07:00:01.820Z,12.23
2023-03-18T07:01:01.842Z,12.41
2023-03-18T07:02:01.734Z,12.50
2023-03-18T07:03:01.747Z,12.56
2023-03-18T07:04:01.759Z,12.71
2023-03-18T07:05:01.700Z,12.78
2023-03-18T07:06:01.718Z,12.85
2023-03-18T07:07:01.689Z,12.78
2023-03-18T07:08:01.665Z,12.95
2023-03-18T07:09:01.686Z,12.92
2023-03-18T07:10:01.655Z,12.87
2023-03-18T07:11:01.650Z,12.93
2023-03-18T07:12:01.626Z,12.96
2023-03-18T07:13:01.642Z,13.00
2023-03-18T07:14:01.639Z,13.01
2023-03-18T07:15:01.620Z,13.00
2023-03-18T07:16:01.649Z,13.00
2023-03-18T07:17:01.588Z,13.05
2023-03-18T07:18:01.559Z,13.14
2023-03-18T07:19:01.544Z,13.41
2023-03-18T07:20:01.567Z,13.52
2023-03-18T07:21:01.543Z,13.59
2023-03-18T07:22:01.546Z,13.75
2023-03-18T07:23:01.520Z,13.81
2023-03-18T07:24:01.523Z,13.70
2023-03-18T07:25:01.497Z,13.70
2023-03-18T07:26:01.456Z,13.66
2023-03-18T07:27:01.472Z,13.81
2023-03-18T07:28:01.498Z,13.81
2023-03-18T07:29:01.436Z,13.81
2023-03-18T07:30:01.423Z,13.78
2023-03-18T07:31:01.461Z,13.78
2023-03-18T07:32:01.423Z,13.91
2023-03-18T07:33:01.505Z,13.99
2023-03-18T07:34:01.396Z,13.87
2023-03-18T07:35:01.376Z,13.73
2023-03-18T07:36:01.440Z,13.59
2023-03-18T07:37:01.356Z,13.59
2023-03-18T07:38:01.354Z,13.71
2023-03-18T07:39:01.343Z,13.81
2023-03-18T07:40:01.307Z,13.92
2023-03-18T07:41:01.301Z,14.06
2023-03-18T07:42:01.310Z,14.15
2023-03-18T07:43:01.300Z,14.15
2023-03-18T07:44:01.288Z,14.15
2023-03-18T07:45:01.264Z,14.18
2023-03-18T07:46:01.251Z,14.25
2023-03-18T07:47:01.264Z,14.37
2023-03-18T07:48:01.220Z,14.36
2023-03-18T07:49:01.261Z,14.36
2023-03-18T07:50:01.206Z,14.43
2023-03-18T07:51:01.197Z,14.50
2023-03-18T07:52:01.425Z,14.52
2023-03-18T07:53:01.195Z,14.55
2023-03-18T07:54:01.171Z,14.45
2023-03-18T07:55:01.175Z,14.33
2023-03-18T07:56:01.132Z,14.43
2023-03-18T07:57:01.173Z,14.45
2023-03-18T07:58:01.134Z,14.60
2023-03-18T07:59:01.118Z,14.61
2023-03-18T08:00:01.090Z,14.70
2023-03-18T08:01:01.117Z,14.73
2023-03-18T08:02:01.078Z,14.89
2023-03-18T08:03:01.088Z,15.09
2023-03-18T08:04:01.110Z,15.19
2023-03-18T08:05:01.074Z,15.13
2023-03-18T08:06:01.020Z,15.11
2023-03-18T08:07:01.053Z,15.20
2023-03-18T08:08:01.126Z,15.35
2023-03-18T08:09:01.007Z,15.50
2023-03-18T08:10:01.000Z,15.67
2023-03-18T08:11:01.020Z,15.64
2023-03-18T08:12:00.973Z,15.76
2023-03-18T08:13:00.959Z,15.86
2023-03-18T08:14:01.099Z,15.80
2023-03-18T08:15:00.969Z,15.86
2023-03-18T08:16:00.962Z,15.93
2023-03-18T08:17:00.958Z,16.12
2023-03-18T08:18:00.905Z,16.11
2023-03-18T08:19:00.940Z,16.01
2023-03-18T08:20:00.878Z,16.07
2023-03-18T08:21:00.881Z,16.07
2023-03-18T08:22:00.869Z,16.01
2023-03-18T08:23:00.889Z,16.02
2023-03-18T08:24:00.888Z,16.21
2023-03-18T08:25:00.874Z,16.08
2023-03-18T08:26:00.816Z,16.02
2023-03-18T08:27:00.821Z,16.02
2023-03-18T08:28:00.789Z,16.14
2023-03-18T08:29:00.863Z,16.01
2023-03-18T08:30:03.493Z,16.27
2023-03-18T08:31:00.810Z,16.31
2023-03-18T08:32:00.743Z,16.24
2023-03-18T08:33:00.823Z,16.35
2023-03-18T08:34:00.730Z,16.27
2023-03-18T08:35:00.715Z,16.27
2023-03-18T08:36:00.795Z,16.23
2023-03-18T08:37:00.693Z,16.17
2023-03-18T08:38:00.701Z,16.05
2023-03-18T08:39:00.718Z,15.97
2023-03-18T08:40:00.669Z,15.89
2023-03-18T08:41:00.683Z,15.94
2023-03-18T08:42:00.718Z,15.87
2023-03-18T08:43:00.637Z,15.89
2023-03-18T08:44:00.619Z,15.83
2023-03-18T08:45:00.620Z,15.80
2023-03-18T08:46:00.649Z,15.78
2023-03-18T08:47:00.649Z,15.90
2023-03-18T08:48:00.602Z,15.93
2023-03-18T08:49:00.577Z,16.07
2023-03-18T08:50:00.559Z,16.17
2023-03-18T08:51:00.576Z,16.30
2023-03-18T08:52:00.535Z,16.31
2023-03-18T08:53:00.531Z,16.50
2023-03-18T08:54:00.543Z,16.52
2023-03-18T08:55:00.508Z,16.60
2023-03-18T08:56:02.843Z,16.58
2023-03-18T08:57:00.474Z,16.60
2023-03-18T08:58:00.464Z,16.57
2023-03-18T08:59:00.474Z,16.63
2023-03-18T09:00:00.475Z,16.57
2023-03-18T09:01:00.542Z,16.58
2023-03-18T09:02:00.460Z,16.58
2023-03-18T09:03:00.405Z,16.73
2023-03-18T09:04:00.513Z,16.67
2023-03-18T09:05:00.409Z,16.94
2023-03-18T09:06:00.403Z,17.04
2023-03-18T09:07:00.412Z,17.01
2023-03-18T09:08:00.381Z,17.07
2023-03-18T09:09:00.345Z,17.11
2023-03-18T09:10:00.344Z,17.21
2023-03-18T09:11:00.479Z,17.04
2023-03-18T09:12:00.330Z,17.08
2023-03-18T09:13:00.316Z,17.11
2023-03-18T09:14:00.300Z,17.08
2023-03-18T09:15:00.276Z,17.01
2023-03-18T09:16:00.337Z,17.03
2023-03-18T09:17:00.321Z,17.08
2023-03-18T09:18:11.462Z,17.08
2023-03-18T09:19:01.289Z,17.15
2023-03-18T09:20:00.278Z,17.12
2023-03-18T09:21:00.205Z,17.14
2023-03-18T09:22:00.216Z,17.14
2023-03-18T09:23:00.201Z,17.01
2023-03-18T09:24:00.201Z,16.83
2023-03-18T09:25:00.165Z,16.75
2023-03-18T09:26:00.165Z,16.75
2023-03-18T09:27:00.224Z,16.71
2023-03-18T09:28:00.223Z,16.68
2023-03-18T09:29:00.118Z,16.79
2023-03-18T09:30:00.268Z,16.82
2023-03-18T09:31:00.211Z,16.91
2023-03-18T09:32:00.148Z,16.96
2023-03-18T09:33:00.165Z,16.91
2023-03-18T09:34:00.095Z,16.89
2023-03-18T09:35:00.049Z,16.98
2023-03-18T09:36:00.238Z,17.01
2023-03-18T09:37:00.042Z,17.08
2023-03-18T09:38:00.019Z,17.15
2023-03-18T09:39:00.117Z,17.12
2023-03-18T09:40:00.014Z,17.16
2023-03-18T09:40:59.988Z,17.22
2023-03-18T09:41:59.967Z,17.06
2023-03-18T09:42:59.959Z,17.19
2023-03-18T09:43:59.983Z,17.14
2023-03-18T09:44:59.977Z,17.14
2023-03-18T09:46:00.121Z,17.15
2023-03-18T09:47:00.108Z,17.15
2023-03-18T09:47:59.903Z,17.14
2023-03-18T09:48:59.896Z,17.14
2023-03-18T09:49:59.913Z,17.07
2023-03-18T09:50:59.906Z,17.01
2023-03-18T09:51:59.861Z,17.04
2023-03-18T09:52:59.846Z,17.01
2023-03-18T09:53:59.845Z,17.11
2023-03-18T09:54:59.845Z,17.03
2023-03-18T09:55:59.836Z,17.07
2023-03-18T09:56:59.835Z,17.14
2023-03-18T09:57:59.800Z,17.34
2023-03-18T09:58:59.784Z,17.31
2023-03-18T09:59:59.816Z,17.33
2023-03-18T10:00:59.805Z,17.46
2023-03-18T10:01:59.766Z,17.44
2023-03-18T10:02:59.790Z,17.36
2023-03-18T10:03:59.738Z,17.41
2023-03-18T10:04:59.710Z,17.26
2023-03-18T10:05:59.728Z,17.19
2023-03-18T10:06:59.720Z,17.19
2023-03-18T10:07:59.688Z,17.07
2023-03-18T10:08:59.707Z,17.15
2023-03-18T10:09:59.664Z,17.22
2023-03-18T10:10:59.660Z,17.21
2023-03-18T10:11:59.643Z,17.28
2023-03-18T10:12:59.653Z,17.26
2023-03-18T10:13:59.625Z,17.26
2023-03-18T10:14:59.695Z,17.49
2023-03-18T10:15:59.762Z,17.46
2023-03-18T10:16:59.645Z,17.59
2023-03-18T10:17:59.579Z,17.54
2023-03-18T10:18:59.561Z,17.54
2023-03-18T10:19:59.566Z,17.51
2023-03-18T10:20:59.609Z,17.48
2023-03-18T10:21:59.537Z,17.28
2023-03-18T10:22:59.538Z,17.36
2023-03-18T10:23:59.509Z,17.30
2023-03-18T10:24:59.557Z,17.31
2023-03-18T10:25:59.496Z,17.40
2023-03-18T10:26:59.524Z,17.36
2023-03-18T10:27:59.532Z,17.33
2023-03-18T10:28:59.481Z,17.46
2023-03-18T10:29:59.447Z,17.49
2023-03-18T10:30:59.471Z,17.43
2023-03-18T10:31:59.443Z,17.55
2023-03-18T10:32:59.495Z,17.68
2023-03-18T10:33:59.522Z,17.63
2023-03-18T10:34:59.426Z,17.63
2023-03-18T10:35:59.469Z,17.75
2023-03-18T10:36:59.433Z,17.79
2023-03-18T10:37:59.379Z,17.81
2023-03-18T10:38:59.367Z,17.74
2023-03-18T10:39:59.383Z,17.62
2023-03-18T10:40:59.371Z,17.70
2023-03-18T10:41:59.331Z,17.66
2023-03-18T10:42:59.348Z,17.59
2023-03-18T10:43:59.323Z,17.79
2023-03-18T10:44:59.287Z,17.86
2023-03-18T10:45:59.312Z,17.96
2023-03-18T10:46:59.462Z,17.90
2023-03-18T10:47:59.358Z,17.86
2023-03-18T10:48:59.284Z,17.79
2023-03-18T10:49:59.267Z,17.93
2023-03-18T10:50:59.277Z,17.93
2023-03-18T10:51:59.225Z,17.93
2023-03-18T10:52:59.235Z,17.99
2023-03-18T10:53:59.218Z,18.07
2023-03-18T10:54:59.174Z,18.11
2023-03-18T10:55:59.293Z,18.14
2023-03-18T10:56:59.155Z,18.25
2023-03-18T10:57:59.182Z,18.17
2023-03-18T10:58:59.149Z,18.14
2023-03-18T10:59:59.121Z,18.10
2023-03-18T11:00:59.182Z,18.25
2023-03-18T11:01:59.193Z,18.17
2023-03-18T11:02:59.151Z,18.17
2023-03-18T11:03:59.106Z,18.15
2023-03-18T11:04:59.079Z,18.11
2023-03-18T11:05:59.071Z,18.15
2023-03-18T11:06:59.146Z,18.27
2023-03-18T11:07:59.056Z,18.25
2023-03-18T11:08:59.016Z,18.21
2023-03-18T11:09:59.015Z,18.12
2023-03-18T11:10:59.014Z,18.00
2023-03-18T11:11:59.009Z,17.95
2023-03-18T11:12:58.989Z,17.92
2023-03-18T11:13:58.964Z,17.81
2023-03-18T11:14:58.967Z,17.56
2023-03-18T11:15:59.043Z,17.58
2023-03-18T11:16:58.976Z,17.49
2023-03-18T11:17:58.920Z,17.41
2023-03-18T11:18:58.923Z,17.44
2023-03-18T11:19:58.940Z,17.31
2023-03-18T11:20:58.910Z,17.41
2023-03-18T11:21:58.940Z,17.37
2023-03-18T11:22:58.895Z,17.46
2023-03-18T11:23:58.902Z,17.31
2023-03-18T11:24:58.846Z,17.40
2023-03-18T11:25:58.846Z,17.52
2023-03-18T11:26:58.850Z,17.54
2023-03-18T11:27:58.911Z,17.51
2023-03-18T11:28:58.800Z,17.33
2023-03-18T11:29:58.796Z,17.36
2023-03-18T11:30:58.862Z,17.38
2023-03-18T11:31:58.767Z,17.28
2023-03-18T11:32:58.873Z,17.31
2023-03-18T11:33:58.762Z,17.28
2023-03-18T11:34:58.831Z,17.33
2023-03-18T11:35:58.796Z,17.38
2023-03-18T11:36:58.707Z,17.51
2023-03-18T11:37:58.701Z,17.46
2023-03-18T11:38:58.710Z,17.41
2023-03-18T11:39:59.199Z,17.52
2023-03-18T11:40:58.713Z,17.63
2023-03-18T11:41:58.655Z,17.66
2023-03-18T11:42:58.639Z,17.72
2023-03-18T11:43:58.643Z,17.75
2023-03-18T11:44:58.617Z,17.75
2023-03-18T11:45:58.693Z,17.66
2023-03-18T11:46:58.659Z,17.55
2023-03-18T11:47:58.650Z,17.41
2023-03-18T11:48:58.572Z,17.33
2023-03-18T11:49:58.568Z,17.31
2023-03-18T11:50:58.570Z,17.25
2023-03-18T11:51:58.585Z,17.28
2023-03-18T11:52:58.548Z,17.37
2023-03-18T11:53:58.532Z,17.43
2023-03-18T11:55:00.420Z,17.51
2023-03-18T11:55:58.503Z,17.58
2023-03-18T11:56:58.495Z,17.64
2023-03-18T11:57:58.502Z,17.74
2023-03-18T11:58:58.475Z,17.70
2023-03-18T11:59:58.464Z,17.68
2023-03-18T12:00:58.470Z,17.82
2023-03-18T12:01:58.494Z,17.74
2023-03-18T12:02:58.470Z,17.71
2023-03-18T12:03:58.415Z,17.71
2023-03-18T12:04:58.504Z,17.55
2023-03-18T12:05:58.398Z,17.62
2023-03-18T12:06:58.493Z,17.54
2023-03-18T12:07:58.426Z,17.59
2023-03-18T12:09:00.149Z,17.56
2023-03-18T12:09:58.352Z,17.44
2023-03-18T12:10:58.346Z,17.52
2023-03-18T12:11:58.334Z,17.51
2023-03-18T12:12:58.354Z,17.52
2023-03-18T12:13:58.326Z,17.55
2023-03-18T12:14:58.313Z,17.64
2023-03-18T12:15:58.322Z,17.63
2023-03-18T12:16:58.332Z,17.71
2023-03-18T12:17:58.265Z,17.74
2023-03-18T12:18:58.300Z,17.58
2023-03-18T12:19:58.259Z,17.71
2023-03-18T12:20:58.230Z,17.71
2023-03-18T12:21:58.237Z,17.54
2023-03-18T12:22:58.232Z,17.43
2023-03-18T12:23:58.264Z,17.44
2023-03-18T12:24:58.188Z,17.44
2023-03-18T12:25:58.184Z,17.62
2023-03-18T12:26:58.176Z,17.68
2023-03-18T12:27:58.154Z,17.71
2023-03-18T12:28:58.643Z,17.79
2023-03-18T12:29:58.155Z,17.71
2023-03-18T12:30:58.124Z,17.72
2023-03-18T12:31:58.207Z,17.77
2023-03-18T12:32:58.149Z,17.78
2023-03-18T12:33:58.116Z,17.77
2023-03-18T12:34:58.082Z,17.84
2023-03-18T12:35:58.168Z,17.81
2023-03-18T12:36:58.051Z,17.84
2023-03-18T12:37:58.039Z,17.82
2023-03-18T12:38:58.053Z,17.95
2023-03-18T12:39:58.054Z,17.92
2023-03-18T12:40:58.049Z,17.99
2023-03-18T12:41:58.030Z,17.95
2023-03-18T12:42:57.981Z,17.82
2023-03-18T12:43:57.980Z,17.74
2023-03-18T12:44:57.982Z,17.86
2023-03-18T12:45:58.001Z,17.75
2023-03-18T12:46:57.955Z,17.72
2023-03-18T12:47:57.947Z,17.79
2023-03-18T12:48:57.916Z,17.84
2023-03-18T12:49:57.907Z,17.79
2023-03-18T12:50:57.917Z,17.95
2023-03-18T12:51:57.896Z,17.75
2023-03-18T12:52:57.873Z,17.77
2023-03-18T12:53:57.883Z,17.75
2023-03-18T12:54:57.858Z,17.77
2023-03-18T12:55:57.866Z,17.81
2023-03-18T12:56:57.853Z,17.62
2023-03-18T12:57:57.842Z,17.62